createdAt,value
2018-01-26T00:13:32.838Z,54.7
2018-01-26T00:28:32.678Z,53.4
2018-01-26T00:43:32.731Z,55.3
2018-01-26T00:58:32.816Z,53.8
2018-01-26T01:18:32.753Z,54.7
2018-01-26T01:33:32.789Z,67.5
2018-01-26T01:48:32.796Z,57.9
2018-01-26T02:08:32.808Z,63
2018-01-26T02:23:32.843Z,64.7
2018-01-26T02:38:33.011Z,60.7
2018-01-26T02:53:32.911Z,67.8
2018-01-26T03:13:32.745Z,69.9
2018-01-26T03:28:32.833Z,77.1
2018-01-26T03:43:32.785Z,75.6
2018-01-26T04:03:32.903Z,83.2
2018-01-26T04:18:32.810Z,69.7
2018-01-26T04:33:32.876Z,88.9
2018-01-26T05:08:33.056Z,82.6
2018-01-26T05:23:32.876Z,75.9
2018-01-26T05:38:42.964Z,112.5
2018-01-26T05:58:42.819Z,118.8
2018-01-26T06:13:32.981Z,99.1
2018-01-26T06:28:33.008Z,113.7
2018-01-26T06:43:33.174Z,108.4
2018-01-26T07:18:32.886Z,80.3
2018-01-26T07:33:33.079Z,73.5
2018-01-26T07:53:32.910Z,92.2
2018-01-26T08:08:32.922Z,80.2
2018-01-26T08:23:32.977Z,86.2
2018-01-26T08:38:33.061Z,90.6
2018-01-26T08:58:33.111Z,78.4
2018-01-26T09:13:33.144Z,71.7
2018-01-26T09:28:33.116Z,81.2
2018-01-26T09:48:33.083Z,60.4
2018-01-26T10:03:33.053Z,68.7
2018-01-26T10:18:33.549Z,68.5
2018-01-26T10:33:33.253Z,70.1
2018-01-26T10:53:33.233Z,74.5
2018-01-26T11:08:34.466Z,64.6
2018-01-26T11:23:33.108Z,77.6
2018-01-26T11:43:33.285Z,81.6
2018-01-26T11:58:33.147Z,71.5
2018-01-26T12:13:33.480Z,67.3
2018-01-26T12:28:33.702Z,64.7
2018-01-26T12:48:33.193Z,86.4
2018-01-26T13:18:33.261Z,65.8
2018-01-26T13:53:33.441Z,81.1
2018-01-26T14:08:33.879Z,67.4
2018-01-26T18:50:05.119Z,94.5
2018-01-26T19:35:05.359Z,111.2
